Time;durP1;ratioP1;P1;durP2;ratioP2;P2;SDS_P1;SDS_P2;PMS_P1;PMS_P2;Temp;Humidity;BMP_temperature;BMP_pressure;BME280_temperature;BME280_humidity;BME280_pressure;Samples;Min_cycle;Max_cycle;Signal;HPM_P1;HPM_P2
2022/12/22 03:27:38;;;;;;;1.55;1.45;;;;;;;23.29;36.23;99472.61;1878173;76;28388;-40
2022/12/22 03:30:27;;;;;;;1.60;1.50;;;;;;;23.31;36.23;99477.88;1877976;76;28208;-41
2022/12/22 03:33:16;;;;;;;1.70;1.60;;;;;;;23.33;36.20;99481.20;1878022;76;28571;-41
2022/12/22 03:36:06;;;;;;;1.60;1.50;;;;;;;23.38;36.16;99493.70;1877983;76;28732;-42
2022/12/22 03:38:55;;;;;;;1.87;1.40;;;;;;;23.40;36.10;99472.88;1860126;76;28261;-43
2022/12/22 03:47:51;;;;;;;1.93;1.43;;;;;;;23.41;36.15;99462.23;1878167;76;28187;-42
2022/12/22 03:50:39;;;;;;;1.50;1.40;;;;;;;23.39;36.10;99469.30;1878253;76;28312;-41
2022/12/22 03:53:27;;;;;;;1.70;1.60;;;;;;;23.43;36.01;99469.67;1859544;76;28160;-41
2022/12/22 03:56:16;;;;;;;1.40;1.40;;;;;;;23.43;36.11;99465.56;1878060;76;28149;-42
2022/12/22 03:59:05;;;;;;;1.65;1.55;;;;;;;23.43;36.03;99466.40;1878055;76;28138;-42
2022/12/22 04:01:55;;;;;;;1.70;1.60;;;;;;;23.47;36.00;99469.48;1878188;76;28186;-40
2022/12/22 04:04:44;;;;;;;1.40;1.40;;;;;;;23.45;36.03;99462.88;1858347;76;28153;-40
2022/12/22 04:07:32;;;;;;;1.60;1.50;;;;;;;23.48;36.00;99467.05;1878104;76;28312;-39
2022/12/22 04:13:26;;;;;;;3.08;1.52;;;;;;;23.49;35.96;99454.45;1877941;76;28359;-41
2022/12/22 04:16:15;;;;;;;1.52;1.50;;;;;;;23.50;35.99;99445.14;1779518;79;31328;-42
2022/12/22 04:19:05;;;;;;;1.57;1.47;;;;;;;23.52;35.95;99436.16;1814775;78;28267;-40
2022/12/22 04:21:54;;;;;;;1.60;1.50;;;;;;;23.51;36.03;99418.56;1852271;76;28239;-41
2022/12/22 04:24:42;;;;;;;1.47;1.37;;;;;;;23.52;36.05;99429.84;1859393;76;28242;-41
2022/12/22 04:27:31;;;;;;;1.70;1.60;;;;;;;23.53;36.01;99436.44;1859375;76;28310;-43
2022/12/22 04:30:20;;;;;;;1.60;1.50;;;;;;;23.53;36.00;99443.83;1856742;76;28514;-44
2022/12/22 04:33:08;;;;;;;1.52;1.42;;;;;;;23.56;36.03;99443.34;1855963;76;28309;-43
2022/12/22 04:35:58;;;;;;;1.47;1.37;;;;;;;23.54;36.07;99439.49;1854625;76;28254;-41
2022/12/22 04:38:47;;;;;;;1.27;1.27;;;;;;;23.60;36.03;99436.30;1828366;78;28387;-42
2022/12/22 04:41:36;;;;;;;1.60;1.50;;;;;;;23.62;36.04;99438.28;1848161;76;28257;-42
2022/12/22 04:44:24;;;;;;;1.73;1.63;;;;;;;23.60;35.96;99440.41;1852282;76;28257;-42
2022/12/22 04:47:13;;;;;;;1.55;1.45;;;;;;;23.65;36.03;99436.41;1854167;76;28286;-42
2022/12/22 04:50:01;;;;;;;1.40;1.40;;;;;;;23.64;35.95;99427.34;1828611;78;28339;-42
2022/12/22 04:52:50;;;;;;;2.08;1.32;;;;;;;23.64;36.08;99427.91;1847030;76;28241;-42
2022/12/22 04:55:38;;;;;;;1.45;1.35;;;;;;;23.64;36.07;99426.53;1852269;76;28206;-41
2022/12/22 04:58:28;;;;;;;1.50;1.40;;;;;;;23.66;36.12;99437.55;1842655;76;28287;-41
2022/12/22 05:01:18;;;;;;;1.75;1.65;;;;;;;23.64;36.14;99445.73;1856308;76;28241;-41
2022/12/22 05:04:13;;;;;;;1.62;1.52;;;;;;;23.66;36.14;99452.64;1856842;76;28268;-40
2022/12/22 05:07:03;;;;;;;1.47;1.47;;;;;;;23.68;36.07;99458.71;1859289;76;28192;-40
2022/12/22 05:09:51;;;;;;;1.40;1.40;;;;;;;23.72;36.05;99453.56;1859293;76;28217;-42
2022/12/22 05:12:55;;;;;;;1.30;1.30;;;;;;;23.72;35.99;99466.74;1859431;76;28295;-42
2022/12/22 05:15:43;;;;;;;1.60;1.50;;;;;;;23.66;36.03;99449.90;1852182;76;28176;-42
2022/12/22 05:18:32;;;;;;;1.40;1.40;;;;;;;23.70;36.02;99481.77;1886184;75;28289;-43
2022/12/22 05:21:22;;;;;;;1.50;1.50;;;;;;;23.74;36.04;99476.93;1872071;75;28149;-41
2022/12/22 05:24:11;;;;;;;1.40;1.40;;;;;;;23.75;36.06;99480.51;1869363;75;28187;-41
2022/12/22 05:27:00;;;;;;;1.60;1.50;;;;;;;23.79;36.05;99480.31;1862807;75;28193;-42
2022/12/22 05:29:52;;;;;;;1.30;1.30;;;;;;;23.80;36.01;99494.34;1866622;75;28201;-42
2022/12/22 05:32:41;;;;;;;1.60;1.50;;;;;;;23.83;35.99;99496.05;1873974;75;28239;-41
2022/12/22 05:35:30;;;;;;;2.08;1.60;;;;;;;23.81;35.96;99489.13;1868848;76;28613;-43
2022/12/22 05:38:19;;;;;;;1.60;1.50;;;;;;;23.83;35.94;99500.16;1884785;75;28173;-42
2022/12/22 05:41:10;;;;;;;1.37;1.37;;;;;;;23.84;35.96;99503.20;1866455;75;28147;-43
2022/12/22 05:43:59;;;;;;;1.35;1.35;;;;;;;23.86;35.99;99505.16;1885496;75;28203;-44
2022/12/22 05:46:52;;;;;;;2.62;1.40;;;;;;;23.87;35.98;99500.52;1879201;75;28213;-43
2022/12/22 05:49:40;;;;;;;1.40;1.30;;;;;;;23.88;35.94;99501.64;1867530;75;28458;-41
2022/12/22 05:52:29;;;;;;;2.52;1.50;;;;;;;23.92;35.92;99508.86;1888479;75;28159;-41
2022/12/22 05:55:17;;;;;;;1.50;1.40;;;;;;;23.91;35.94;99520.90;1869260;75;28192;-42
2022/12/22 05:58:06;;;;;;;1.30;1.30;;;;;;;23.93;35.98;99521.48;1867646;75;28160;-42
2022/12/22 06:00:57;;;;;;;1.32;1.32;;;;;;;23.96;35.88;99512.25;1867559;75;28279;-40
2022/12/22 06:03:45;;;;;;;1.42;1.40;;;;;;;23.97;35.93;99522.66;1868218;75;28208;-40
2022/12/22 06:06:34;;;;;;;1.42;1.32;;;;;;;23.97;35.89;99529.52;1883805;75;28210;-41
2022/12/22 06:09:22;;;;;;;1.45;1.45;;;;;;;23.97;35.92;99537.22;1901217;75;28637;-41
2022/12/22 06:12:11;;;;;;;1.60;1.40;;;;;;;24.02;35.87;99549.68;1867430;75;28182;-41
2022/12/22 06:14:59;;;;;;;1.77;1.32;;;;;;;24.00;35.92;99550.99;1869225;75;28201;-41
2022/12/22 06:17:48;;;;;;;1.50;1.40;;;;;;;24.02;35.95;99551.05;1882736;74;28262;-41
2022/12/22 06:20:36;;;;;;;1.50;1.40;;;;;;;24.05;35.92;99557.97;1893291;75;28367;-41
2022/12/22 06:23:24;;;;;;;1.57;1.47;;;;;;;24.06;35.87;99561.05;1880592;75;28180;-40
2022/12/22 06:26:12;;;;;;;1.20;1.20;;;;;;;24.08;35.86;99567.13;1888850;75;28254;-41
2022/12/22 06:29:01;;;;;;;1.40;1.30;;;;;;;24.06;35.89;99569.28;1856815;77;28133;-41
2022/12/22 06:31:49;;;;;;;1.30;1.30;;;;;;;24.06;35.93;99573.40;1884350;75;28225;-42
2022/12/22 06:34:45;;;;;;;1.57;1.47;;;;;;;24.05;35.93;99572.53;1869415;75;28126;-42
2022/12/22 06:37:35;;;;;;;1.35;1.32;;;;;;;24.09;35.92;99573.42;1868753;76;28179;-42
2022/12/22 06:40:23;;;;;;;1.45;1.25;;;;;;;24.11;35.90;99572.11;1868395;75;28243;-40
2022/12/22 06:43:13;;;;;;;1.50;1.40;;;;;;;24.13;35.95;99574.09;1884055;75;28160;-40
2022/12/22 06:46:01;;;;;;;1.30;1.30;;;;;;;24.12;35.92;99588.89;1867916;75;30127;-41
2022/12/22 06:48:50;;;;;;;1.67;1.40;;;;;;;24.14;35.85;99587.26;1884379;75;38558;-42
2022/12/22 06:51:39;;;;;;;1.77;1.67;;;;;;;24.16;35.85;99591.44;1901464;75;28583;-44
2022/12/22 06:54:27;;;;;;;1.47;1.42;;;;;;;24.14;35.73;99578.49;1867561;75;28265;-40
2022/12/22 06:57:15;;;;;;;1.60;1.50;;;;;;;24.15;35.76;99583.45;1868903;75;28134;-42
2022/12/22 07:00:06;;;;;;;1.42;1.35;;;;;;;24.16;35.74;99585.94;1883087;75;28177;-42
2022/12/22 07:02:54;;;;;;;1.30;1.30;;;;;;;24.17;35.72;99583.51;1879345;75;28431;-41
2022/12/22 07:05:44;;;;;;;1.25;1.25;;;;;;;24.15;35.73;99585.66;1867175;75;28173;-42
2022/12/22 07:08:31;;;;;;;2.12;1.40;;;;;;;24.15;35.78;99576.59;1901121;75;28094;-40
2022/12/22 07:11:20;;;;;;;1.70;1.60;;;;;;;24.18;35.75;99565.94;1870042;75;29226;-40
2022/12/22 07:14:10;;;;;;;1.50;1.40;;;;;;;24.19;35.73;99565.41;1899523;74;28227;-40
2022/12/22 07:16:59;;;;;;;1.60;1.50;;;;;;;24.22;35.70;99568.52;1886118;75;28188;-46
2022/12/22 07:19:47;;;;;;;1.50;1.40;;;;;;;24.21;35.88;99566.84;1887700;75;28130;-46
2022/12/22 07:22:36;;;;;;;1.60;1.50;;;;;;;24.21;35.59;99570.11;1901266;75;28182;-45
2022/12/22 07:25:24;;;;;;;1.57;1.47;;;;;;;24.23;35.59;99574.82;1875045;75;28282;-46
2022/12/22 07:28:13;;;;;;;1.47;1.47;;;;;;;24.24;35.58;99580.62;1901282;75;28280;-47
2022/12/22 07:31:01;;;;;;;1.60;1.50;;;;;;;24.23;35.67;99584.42;1901279;75;28143;-47
2022/12/22 07:33:51;;;;;;;1.60;1.50;;;;;;;24.23;36.07;99579.78;1871197;75;28218;-45
2022/12/22 07:36:39;;;;;;;3.02;1.77;;;;;;;24.23;36.38;99586.64;1882991;75;28187;-48
2022/12/22 07:39:28;;;;;;;2.33;1.60;;;;;;;24.22;36.15;99571.27;1901240;75;28180;-46
2022/12/22 07:45:22;;;;;;;1.92;1.55;;;;;;;24.16;36.64;99576.87;1879727;75;31967;-45
2022/12/22 07:51:23;;;;;;;1.60;1.50;;;;;;;24.12;36.89;99569.67;1900999;75;28562;-47
2022/12/22 07:54:20;;;;;;;1.70;1.40;;;;;;;24.10;36.99;99575.11;1879040;75;28249;-47
2022/12/22 07:57:09;;;;;;;1.77;1.67;;;;;;;24.06;37.03;99576.14;1901237;75;28176;-46
2022/12/22 07:59:59;;;;;;;1.55;1.50;;;;;;;24.07;37.14;99570.94;1885714;75;28108;-42
2022/12/22 08:02:57;;;;;;;1.77;1.67;;;;;;;24.07;37.10;99568.19;1874654;75;28096;-46
2022/12/22 08:05:46;;;;;;;1.60;1.50;;;;;;;24.08;37.15;99569.88;1896792;75;28115;-48
2022/12/22 08:08:35;;;;;;;1.98;1.70;;;;;;;24.09;37.10;99563.29;1880390;75;28265;-47
2022/12/22 08:11:23;;;;;;;1.50;1.40;;;;;;;24.08;37.23;99564.38;1883812;75;28296;-46
2022/12/22 08:14:12;;;;;;;1.50;1.40;;;;;;;24.10;37.22;99569.09;1879116;75;28146;-43
2022/12/22 08:17:00;;;;;;;1.98;1.55;;;;;;;24.11;37.15;99564.44;1897831;75;28208;-45
2022/12/22 08:19:50;;;;;;;1.40;1.40;;;;;;;24.10;37.15;99555.89;1884980;75;28179;-44
2022/12/22 08:22:41;;;;;;;1.70;1.60;;;;;;;24.12;37.14;99556.48;1856899;77;31105;-46
2022/12/22 08:25:31;;;;;;;3.05;1.40;;;;;;;24.11;37.11;99556.20;1865715;75;28467;-47
2022/12/22 08:28:22;;;;;;;4.15;1.50;;;;;;;24.09;37.16;99555.05;1901125;75;28098;-43
2022/12/22 08:31:11;;;;;;;1.80;1.60;;;;;;;24.09;37.16;99552.31;1901268;75;28146;-46
2022/12/22 08:34:02;;;;;;;1.70;1.60;;;;;;;24.10;37.15;99549.03;1876148;75;28224;-45
2022/12/22 08:36:55;;;;;;;1.42;1.37;;;;;;;24.13;37.01;99554.89;1892161;75;28243;-43
2022/12/22 08:39:47;;;;;;;1.52;1.40;;;;;;;24.09;37.08;99560.55;1894720;75;28124;-43
2022/12/22 08:42:36;;;;;;;1.33;1.30;;;;;;;24.12;36.99;99563.34;1901112;75;28172;-42
2022/12/22 08:45:25;;;;;;;1.92;1.52;;;;;;;24.12;36.97;99561.44;1868731;76;28214;-48
2022/12/22 08:48:13;;;;;;;1.50;1.40;;;;;;;24.11;37.03;99561.69;1890253;75;28187;-48
2022/12/22 08:51:01;;;;;;;1.45;1.35;;;;;;;24.13;37.02;99559.00;1878340;75;28181;-46
2022/12/22 08:53:50;;;;;;;1.60;1.50;;;;;;;24.11;37.00;99559.76;1875308;75;28223;-45
2022/12/22 08:56:39;;;;;;;2.27;1.40;;;;;;;24.09;36.97;99560.55;1868471;76;28262;-45
2022/12/22 08:59:27;;;;;;;1.35;1.25;;;;;;;24.10;36.93;99569.09;1890268;75;28250;-46
2022/12/22 09:02:15;;;;;;;2.37;1.50;;;;;;;24.08;37.02;99568.50;1879398;75;28341;-45
2022/12/22 09:05:04;;;;;;;2.37;1.37;;;;;;;24.01;37.00;99563.66;1871972;75;28212;-48
2022/12/22 09:07:52;;;;;;;1.60;1.50;;;;;;;24.10;36.96;99578.69;1868112;75;28180;-43
2022/12/22 09:10:43;;;;;;;1.47;1.37;;;;;;;24.10;36.97;99584.18;1879362;75;28102;-45
2022/12/22 09:13:31;;;;;;;1.53;1.43;;;;;;;24.07;36.96;99590.14;1866952;75;28140;-45
2022/12/22 09:16:21;;;;;;;1.50;1.40;;;;;;;24.11;36.89;99591.32;1885564;75;28154;-48
2022/12/22 09:19:09;;;;;;;1.50;1.40;;;;;;;24.08;36.85;99593.73;1867693;75;28197;-49
2022/12/22 09:21:58;;;;;;;1.45;1.40;;;;;;;24.10;36.88;99586.92;1892157;75;28280;-43
2022/12/22 09:24:46;;;;;;;1.57;1.42;;;;;;;24.10;36.89;99588.83;1889993;75;28136;-45
2022/12/22 09:27:36;;;;;;;1.40;1.40;;;;;;;24.13;36.83;99599.33;1901527;75;28243;-47
2022/12/22 09:30:29;;;;;;;1.85;1.47;;;;;;;24.12;36.80;99600.39;1875307;75;28246;-44
2022/12/22 09:33:18;;;;;;;1.40;1.30;;;;;;;24.12;36.77;99587.52;1896674;75;28226;-45
2022/12/22 09:36:14;;;;;;;1.20;1.20;;;;;;;24.13;36.82;99582.33;1889599;75;28161;-42
2022/12/22 09:39:07;;;;;;;2.40;1.52;;;;;;;24.12;36.71;99585.30;1884416;75;28185;-44
2022/12/22 09:41:58;;;;;;;1.55;1.45;;;;;;;24.11;36.75;99591.32;1875079;75;28278;-45
2022/12/22 09:44:49;;;;;;;1.50;1.40;;;;;;;24.07;36.81;99597.53;1879572;75;28191;-44
2022/12/22 09:47:40;;;;;;;1.50;1.40;;;;;;;24.10;36.76;99591.05;1879573;75;28142;-47
2022/12/22 09:50:30;;;;;;;1.40;1.30;;;;;;;24.12;36.69;99599.86;1883152;75;28217;-44
2022/12/22 09:53:22;;;;;;;1.30;1.30;;;;;;;24.09;36.74;99596.22;1876924;75;28200;-44
2022/12/22 09:56:13;;;;;;;1.75;1.50;;;;;;;24.12;36.70;99600.39;1893186;75;28187;-44
2022/12/22 09:59:02;;;;;;;1.27;1.25;;;;;;;24.11;36.68;99594.06;1871827;75;28215;-46
2022/12/22 10:02:25;;;;;;;1.47;1.35;;;;;;;24.09;36.71;99611.84;1882321;75;28271;-47
2022/12/22 10:05:37;;;;;;;1.32;1.30;;;;;;;24.09;36.70;99608.57;1889758;75;28196;-46
2022/12/22 10:08:32;;;;;;;1.40;1.40;;;;;;;24.08;36.77;99611.56;1889433;75;28172;-44
2022/12/22 10:11:21;;;;;;;1.35;1.35;;;;;;;24.04;36.81;99626.26;1868739;76;28180;-44
2022/12/22 10:14:11;;;;;;;1.70;1.30;;;;;;;24.05;36.79;99621.92;1899343;75;28176;-46
2022/12/22 10:17:20;;;;;;;1.23;1.23;;;;;;;24.06;36.72;99632.41;1879697;75;28269;-45
2022/12/22 10:20:29;;;;;;;1.57;1.47;;;;;;;24.06;36.72;99631.03;1879558;75;28126;-48
2022/12/22 10:23:23;;;;;;;1.12;1.12;;;;;;;24.01;36.79;99621.27;1901123;75;28298;-46
2022/12/22 10:26:14;;;;;;;1.60;1.50;;;;;;;24.02;36.75;99618.28;1900824;75;28114;-43
2022/12/22 10:29:14;;;;;;;1.20;1.20;;;;;;;24.06;36.72;99613.19;1869142;76;28244;-49
2022/12/22 10:32:05;;;;;;;1.20;1.20;;;;;;;24.06;36.66;99604.95;1890329;75;28162;-45
2022/12/22 10:35:05;;;;;;;1.60;1.50;;;;;;;24.00;36.67;99588.03;1890899;75;28155;-46
2022/12/22 10:37:53;;;;;;;2.12;1.40;;;;;;;24.05;36.67;99600.50;1890950;75;28167;-44
2022/12/22 10:40:48;;;;;;;1.60;1.30;;;;;;;24.03;36.62;99594.42;1901205;75;28174;-43
2022/12/22 10:43:40;;;;;;;1.20;1.20;;;;;;;24.07;36.63;99588.77;1869169;76;28148;-45
2022/12/22 10:46:37;;;;;;;1.92;1.50;;;;;;;24.07;36.59;99586.56;1875935;75;28137;-44
2022/12/22 10:49:28;;;;;;;1.50;1.40;;;;;;;24.10;36.56;99596.53;1879843;75;28146;-48
2022/12/22 10:52:22;;;;;;;1.32;1.25;;;;;;;24.11;36.58;99587.20;1901406;75;28547;-46
2022/12/22 10:55:20;;;;;;;1.27;1.20;;;;;;;24.09;36.54;99581.66;1901223;75;28141;-45
2022/12/22 10:58:17;;;;;;;1.40;1.40;;;;;;;24.05;36.58;99569.78;1869221;76;28201;-44
2022/12/22 11:01:06;;;;;;;1.60;1.50;;;;;;;24.07;36.58;99576.42;1890803;75;28230;-47
2022/12/22 11:03:54;;;;;;;1.15;1.15;;;;;;;24.08;36.53;99580.01;1871075;75;28266;-46
2022/12/22 11:06:45;;;;;;;1.50;1.40;;;;;;;24.12;36.51;99575.70;1883315;75;28130;-45
2022/12/22 11:09:33;;;;;;;1.50;1.40;;;;;;;24.11;36.47;99577.59;1869168;76;28207;-43
2022/12/22 11:12:45;;;;;;;2.03;1.43;;;;;;;24.11;36.46;99569.92;1897742;75;28099;-46
2022/12/22 11:15:59;;;;;;;1.37;1.37;;;;;;;24.12;36.45;99564.72;1879912;75;32532;-45
2022/12/22 11:19:09;;;;;;;1.30;1.30;;;;;;;24.08;36.50;99557.52;1901195;75;28093;-45
2022/12/22 11:22:00;;;;;;;1.47;1.37;;;;;;;24.04;36.52;99553.01;1895603;75;32120;-45
2022/12/22 11:24:57;;;;;;;1.30;1.30;;;;;;;24.03;36.54;99543.13;1896968;74;28245;-44
2022/12/22 11:28:14;;;;;;;1.07;1.07;;;;;;;24.05;36.51;99536.85;1876119;76;28122;-44
2022/12/22 11:31:37;;;;;;;1.30;1.30;;;;;;;24.08;36.47;99539.69;1896454;74;28242;-46
2022/12/22 11:34:37;;;;;;;1.40;1.40;;;;;;;24.05;36.47;99543.71;1878254;76;28176;-43
2022/12/22 11:37:49;;;;;;;1.40;1.30;;;;;;;24.00;36.53;99547.72;1894242;74;28133;-43
2022/12/22 11:40:49;;;;;;;1.32;1.25;;;;;;;24.04;36.51;99554.38;1910882;74;28399;-43
2022/12/22 11:43:57;;;;;;;1.40;1.30;;;;;;;24.05;36.47;99551.11;1878267;76;28192;-44
2022/12/22 11:47:16;;;;;;;1.45;1.42;;;;;;;24.04;36.50;99548.05;1900487;74;28133;-44
2022/12/22 11:50:24;;;;;;;1.37;1.30;;;;;;;24.03;36.52;99545.88;1889034;74;28140;-44
2022/12/22 11:53:34;;;;;;;1.40;1.40;;;;;;;24.03;36.51;99554.63;1910617;74;28137;-44
2022/12/22 11:56:29;;;;;;;1.60;1.50;;;;;;;24.04;36.48;99548.89;1888705;74;28128;-43
2022/12/22 11:59:32;;;;;;;1.40;1.40;;;;;;;24.04;36.51;99557.66;1910993;74;28232;-43
2022/12/22 12:02:46;;;;;;;2.42;1.45;;;;;;;24.04;36.52;99556.28;1887737;74;28192;-45
2022/12/22 12:05:54;;;;;;;1.40;1.30;;;;;;;24.04;36.45;99548.05;1889034;74;28188;-50
2022/12/22 12:09:03;;;;;;;1.30;1.30;;;;;;;24.05;36.48;99540.12;1906072;74;28149;-45
2022/12/22 12:11:57;;;;;;;1.30;1.30;;;;;;;24.03;36.52;99539.55;1904314;74;28209;-44
2022/12/22 12:14:58;;;;;;;1.40;1.20;;;;;;;24.04;36.49;99536.55;1909764;74;28099;-44
2022/12/22 12:18:01;;;;;;;1.60;1.50;;;;;;;24.07;36.43;99524.28;1911041;74;28219;-44
2022/12/22 12:21:01;;;;;;;1.45;1.30;;;;;;;24.05;36.45;99523.66;1878301;76;28216;-44
2022/12/22 12:24:15;;;;;;;1.40;1.30;;;;;;;24.08;36.42;99512.77;1892538;74;28167;-45
2022/12/22 12:27:23;;;;;;;1.37;1.27;;;;;;;24.08;36.39;99507.28;1890617;75;28182;-45
2022/12/22 12:30:18;;;;;;;1.30;1.20;;;;;;;24.08;36.38;99501.80;1885664;75;28110;-45
2022/12/22 12:33:08;;;;;;;1.70;1.40;;;;;;;24.07;36.43;99505.07;1865539;75;28210;-43
2022/12/22 12:36:17;;;;;;;1.60;1.50;;;;;;;24.10;36.36;99495.52;1887355;75;28102;-46
2022/12/22 12:39:11;;;;;;;1.32;1.32;;;;;;;24.10;36.33;99491.41;1856905;77;28150;-43
2022/12/22 12:42:12;;;;;;;1.90;1.40;;;;;;;24.11;36.30;99484.28;1868736;76;28145;-43
2022/12/22 12:45:01;;;;;;;1.37;1.37;;;;;;;24.11;36.33;99484.28;1887916;75;28301;-45
2022/12/22 12:47:49;;;;;;;2.17;1.47;;;;;;;24.11;36.29;99477.42;1884791;75;28095;-43
2022/12/22 12:50:38;;;;;;;1.35;1.35;;;;;;;24.14;36.30;99473.36;1876809;75;28108;-45
2022/12/22 12:53:29;;;;;;;1.80;1.30;;;;;;;24.15;36.22;99473.67;1868748;76;28176;-48
2022/12/22 12:56:18;;;;;;;1.45;1.35;;;;;;;24.18;36.20;99464.95;1887289;75;28116;-44
2022/12/22 12:59:07;;;;;;;2.87;1.60;;;;;;;24.19;36.18;99462.48;1901451;75;28130;-46
2022/12/22 13:01:58;;;;;;;1.67;1.57;;;;;;;24.18;36.17;99461.64;1869018;75;28093;-43
2022/12/22 13:05:11;;;;;;;1.70;1.60;;;;;;;24.18;36.17;99456.16;1868081;76;28771;-43
2022/12/22 13:08:14;;;;;;;1.70;1.60;;;;;;;24.18;36.23;99448.48;1870076;75;28207;-46
2022/12/22 13:11:11;;;;;;;1.75;1.65;;;;;;;24.16;36.20;99442.38;1901498;74;28559;-46
2022/12/22 13:13:59;;;;;;;1.50;1.40;;;;;;;24.16;36.17;99432.24;1903277;74;28221;-45
2022/12/22 13:16:48;;;;;;;2.02;1.47;;;;;;;24.16;36.20;99432.77;1867867;75;38605;-44
2022/12/22 13:19:37;;;;;;;1.60;1.50;;;;;;;24.16;36.20;99433.61;1889025;75;28183;-44
2022/12/22 13:22:25;;;;;;;1.60;1.50;;;;;;;24.18;36.17;99445.17;1862391;75;28144;-45
2022/12/22 13:25:18;;;;;;;1.60;1.50;;;;;;;24.18;36.16;99449.30;1889550;75;28123;-46
2022/12/22 13:28:08;;;;;;;1.60;1.50;;;;;;;24.18;36.15;99444.37;1889163;75;28145;-46
2022/12/22 13:31:18;;;;;;;1.70;1.60;;;;;;;24.18;36.17;99454.78;1872899;75;28212;-46
2022/12/22 13:34:26;;;;;;;1.47;1.40;;;;;;;24.19;36.19;99448.76;1874665;75;28199;-47
2022/12/22 13:37:20;;;;;;;1.60;1.40;;;;;;;24.14;36.17;99450.88;1856943;77;28126;-50
2022/12/22 13:40:25;;;;;;;1.70;1.60;;;;;;;24.14;36.25;99450.03;1890861;75;28273;-46
2022/12/22 13:43:18;;;;;;;1.90;1.80;;;;;;;24.13;36.21;99435.50;1878415;75;28220;-44
2022/12/22 13:46:09;;;;;;;1.62;1.52;;;;;;;24.14;36.21;99444.02;1880316;75;30273;-43
2022/12/22 13:48:59;;;;;;;1.60;1.50;;;;;;;24.15;36.21;99440.73;1900801;75;28162;-45
2022/12/22 13:51:48;;;;;;;1.73;1.63;;;;;;;24.16;36.15;99439.11;1856811;77;28173;-44
2022/12/22 13:54:39;;;;;;;1.70;1.60;;;;;;;24.14;36.17;99433.56;1898331;75;31045;-45
2022/12/22 13:57:28;;;;;;;1.80;1.70;;;;;;;24.15;36.18;99436.09;1901065;75;28293;-45
2022/12/22 14:00:23;;;;;;;2.02;1.40;;;;;;;24.18;36.14;99439.69;1882903;75;32047;-45
2022/12/22 14:03:18;;;;;;;1.60;1.50;;;;;;;24.15;36.16;99426.48;1856678;77;28151;-44
2022/12/22 14:06:22;;;;;;;1.30;1.30;;;;;;;24.18;36.12;99421.84;1867196;75;28125;-46
2022/12/22 14:09:14;;;;;;;2.08;1.62;;;;;;;24.13;36.17;99420.41;1881793;75;28185;-44
2022/12/22 14:12:09;;;;;;;1.70;1.60;;;;;;;24.13;36.19;99428.64;1880024;75;28210;-46
2022/12/22 14:15:03;;;;;;;1.70;1.60;;;;;;;24.13;36.22;99425.90;1888860;75;28282;-47
2022/12/22 14:17:53;;;;;;;1.90;1.55;;;;;;;24.13;36.18;99425.06;1856711;77;28312;-44
2022/12/22 14:20:45;;;;;;;1.70;1.60;;;;;;;24.18;36.15;99432.02;1877050;75;28102;-43
2022/12/22 14:23:40;;;;;;;1.57;1.47;;;;;;;24.15;36.14;99431.13;1875837;75;28234;-44
2022/12/22 14:26:30;;;;;;;1.60;1.50;;;;;;;24.11;36.18;99425.28;1895047;74;28172;-45
2022/12/22 14:29:22;;;;;;;1.55;1.50;;;;;;;24.12;36.19;99419.27;1895498;74;28241;-45
2022/12/22 14:32:14;;;;;;;1.45;1.35;;;;;;;24.16;36.15;99424.55;1887974;74;28259;-46
2022/12/22 14:35:03;;;;;;;1.70;1.60;;;;;;;24.15;36.13;99422.36;1910911;74;28105;-42
2022/12/22 14:38:06;;;;;;;1.87;1.77;;;;;;;24.13;36.12;99428.64;1889067;74;28193;-45
2022/12/22 14:40:57;;;;;;;1.60;1.50;;;;;;;24.15;36.15;99419.62;1903777;74;28113;-45
2022/12/22 14:43:48;;;;;;;1.55;1.45;;;;;;;24.13;36.15;99413.55;1896502;74;28291;-43
2022/12/22 14:46:39;;;;;;;1.57;1.47;;;;;;;24.15;36.10;99418.25;1899683;74;28194;-46
2022/12/22 14:49:32;;;;;;;1.90;1.75;;;;;;;24.13;36.11;99421.78;1899998;74;28275;-43
2022/12/22 14:52:34;;;;;;;1.62;1.52;;;;;;;24.14;36.14;99432.20;1898957;74;28144;-44
2022/12/22 14:55:37;;;;;;;1.80;1.70;;;;;;;24.15;36.11;99434.71;1877906;76;28163;-45
2022/12/22 14:58:36;;;;;;;1.70;1.60;;;;;;;24.13;36.17;99449.75;1877936;76;28315;-46
2022/12/22 15:01:28;;;;;;;1.70;1.60;;;;;;;24.11;36.15;99453.30;1889852;74;28166;-43
2022/12/22 15:04:19;;;;;;;1.60;1.50;;;;;;;24.11;36.12;99447.23;1903621;74;28260;-45
2022/12/22 15:07:21;;;;;;;1.60;1.50;;;;;;;24.07;36.21;99451.56;1899417;74;28099;-45
2022/12/22 15:10:10;;;;;;;1.93;1.70;;;;;;;24.10;36.17;99448.33;1896764;74;28254;-45
2022/12/22 15:13:01;;;;;;;1.60;1.50;;;;;;;24.10;36.17;99451.08;1877844;76;28181;-46
2022/12/22 15:15:53;;;;;;;1.70;1.60;;;;;;;24.08;36.17;99445.54;1909586;74;28145;-45
2022/12/22 15:18:43;;;;;;;1.30;1.30;;;;;;;24.10;36.18;99443.38;1888789;74;28253;-44
2022/12/22 15:21:35;;;;;;;1.50;1.40;;;;;;;24.10;36.12;99433.23;1889107;74;28234;-45
2022/12/22 15:24:28;;;;;;;2.05;1.60;;;;;;;24.10;36.14;99437.89;1894486;74;28131;-46
2022/12/22 15:27:20;;;;;;;1.65;1.50;;;;;;;24.13;36.10;99449.22;1872856;76;28251;-43
2022/12/22 15:30:19;;;;;;;1.70;1.60;;;;;;;24.10;36.12;99451.08;1898021;75;28120;-44
2022/12/22 15:33:16;;;;;;;1.55;1.45;;;;;;;24.08;36.15;99445.01;1901399;75;28244;-46
2022/12/22 15:36:06;;;;;;;1.60;1.50;;;;;;;24.12;36.12;99435.73;1901611;75;28214;-44
2022/12/22 15:38:55;;;;;;;1.70;1.60;;;;;;;24.12;36.13;99436.56;1869051;76;28184;-45
2022/12/22 15:41:44;;;;;;;1.42;1.32;;;;;;;24.08;36.10;99434.03;1899676;75;28173;-48
2022/12/22 15:44:32;;;;;;;1.60;1.50;;;;;;;24.02;36.11;99413.01;1897553;75;28082;-45
2022/12/22 15:47:21;;;;;;;1.70;1.60;;;;;;;24.10;36.07;99408.54;1888270;75;28101;-45
2022/12/22 15:50:12;;;;;;;1.50;1.40;;;;;;;24.09;36.11;99399.16;1883171;75;33076;-46
2022/12/22 15:53:03;;;;;;;1.65;1.55;;;;;;;24.10;36.05;99392.61;1892830;75;28244;-45
2022/12/22 15:55:57;;;;;;;1.30;1.30;;;;;;;24.09;36.10;99385.44;1890407;75;28276;-43
2022/12/22 15:58:53;;;;;;;1.85;1.75;;;;;;;24.07;36.12;99380.74;1890690;75;28135;-48
2022/12/22 16:01:42;;;;;;;2.15;1.55;;;;;;;24.07;36.11;99385.70;1884947;75;28203;-45
2022/12/22 16:04:30;;;;;;;1.62;1.52;;;;;;;24.08;36.11;99390.66;1891190;75;28182;-44
2022/12/22 16:07:19;;;;;;;1.67;1.57;;;;;;;24.06;36.11;99388.17;1895289;75;28287;-44
2022/12/22 16:10:19;;;;;;;1.52;1.42;;;;;;;24.08;36.11;99390.66;1901438;75;28146;-44
2022/12/22 16:13:10;;;;;;;1.60;1.50;;;;;;;24.04;36.09;99388.36;1868979;76;28209;-44
2022/12/22 16:15:59;;;;;;;1.32;1.30;;;;;;;24.02;36.18;99378.70;1868731;76;28137;-45
2022/12/22 16:18:49;;;;;;;1.80;1.70;;;;;;;24.05;36.13;99370.83;1890402;75;28138;-45
2022/12/22 16:21:38;;;;;;;1.50;1.40;;;;;;;24.03;36.14;99360.64;1891707;75;28170;-44
2022/12/22 16:24:29;;;;;;;1.50;1.40;;;;;;;24.05;36.14;99369.45;1901389;75;28155;-45
2022/12/22 16:27:18;;;;;;;1.52;1.42;;;;;;;24.08;36.05;99379.14;1867679;76;28277;-43
2022/12/22 16:30:10;;;;;;;1.63;1.53;;;;;;;24.07;36.05;99367.86;1896682;75;28154;-45
2022/12/22 16:32:58;;;;;;;1.50;1.40;;;;;;;24.06;36.05;99357.98;1867356;75;28226;-43
2022/12/22 16:35:49;;;;;;;1.50;1.40;;;;;;;24.07;36.08;99357.42;1901487;75;28151;-49
2022/12/22 16:38:39;;;;;;;1.50;1.40;;;;;;;24.06;36.07;99366.22;1880774;75;28217;-43
2022/12/22 16:41:27;;;;;;;1.52;1.42;;;;;;;24.04;36.07;99371.90;1901331;75;28184;-43
2022/12/22 16:44:18;;;;;;;1.40;1.33;;;;;;;24.05;36.11;99370.83;1867437;75;28238;-45
2022/12/22 16:47:08;;;;;;;1.37;1.30;;;;;;;24.06;36.08;99366.22;1872563;75;32186;-43
2022/12/22 16:49:56;;;;;;;1.60;1.50;;;;;;;24.07;36.04;99364.28;1857018;77;28194;-46
2022/12/22 16:52:45;;;;;;;1.60;1.50;;;;;;;24.05;36.06;99357.64;1895493;75;28169;-44
2022/12/22 16:55:34;;;;;;;1.75;1.65;;;;;;;24.03;36.06;99359.81;1901423;75;28270;-46
2022/12/22 16:58:23;;;;;;;1.60;1.50;;;;;;;24.05;36.08;99362.60;1874357;75;28255;-44
2022/12/22 17:01:20;;;;;;;1.55;1.45;;;;;;;24.07;36.04;99357.42;1878462;75;28261;-45
2022/12/22 17:04:14;;;;;;;1.37;1.37;;;;;;;24.07;36.06;99360.16;1878255;75;28158;-45
2022/12/22 17:07:03;;;;;;;1.67;1.40;;;;;;;24.05;36.03;99357.64;1878705;75;28111;-48
2022/12/22 17:10:01;;;;;;;2.00;1.50;;;;;;;24.02;36.05;99362.25;1884540;75;28110;-44
2022/12/22 17:12:53;;;;;;;1.42;1.40;;;;;;;24.03;36.05;99362.55;1881617;75;28168;-46
2022/12/22 17:15:41;;;;;;;1.35;1.35;;;;;;;24.01;36.09;99361.41;1888964;75;28240;-45